sensor_id;sensor_type;location;lat;lon;timestamp;P1;durP1;ratioP1;P2;durP2;ratioP2
20511;SDS011;10414;52.074;5.126;2024-01-25T00:00:16;23.08;;;2.92;;
20511;SDS011;10414;52.074;5.126;2024-01-25T00:02:43;15.32;;;2.50;;
20511;SDS011;10414;52.074;5.126;2024-01-25T00:05:10;21.10;;;3.17;;
20511;SDS011;10414;52.074;5.126;2024-01-25T00:07:44;19.85;;;3.10;;
20511;SDS011;10414;52.074;5.126;2024-01-25T00:10:13;24.90;;;3.53;;
20511;SDS011;10414;52.074;5.126;2024-01-25T00:12:40;23.27;;;2.97;;
20511;SDS011;10414;52.074;5.126;2024-01-25T00:15:07;27.75;;;4.25;;
20511;SDS011;10414;52.074;5.126;2024-01-25T00:17:35;22.50;;;3.35;;
20511;SDS011;10414;52.074;5.126;2024-01-25T00:20:02;30.08;;;3.83;;
20511;SDS011;10414;52.074;5.126;2024-01-25T00:22:30;32.17;;;3.67;;
20511;SDS011;10414;52.074;5.126;2024-01-25T00:24:57;22.85;;;2.88;;
20511;SDS011;10414;52.074;5.126;2024-01-25T00:27:25;21.08;;;3.22;;
20511;SDS011;10414;52.074;5.126;2024-01-25T00:29:52;28.67;;;3.22;;
20511;SDS011;10414;52.074;5.126;2024-01-25T00:32:19;17.23;;;2.72;;
20511;SDS011;10414;52.074;5.126;2024-01-25T00:34:46;22.17;;;2.70;;
20511;SDS011;10414;52.074;5.126;2024-01-25T00:37:13;33.45;;;3.30;;
20511;SDS011;10414;52.074;5.126;2024-01-25T00:39:41;29.33;;;3.53;;
20511;SDS011;10414;52.074;5.126;2024-01-25T00:42:08;21.50;;;3.80;;
20511;SDS011;10414;52.074;5.126;2024-01-25T00:44:41;18.13;;;2.78;;
20511;SDS011;10414;52.074;5.126;2024-01-25T00:47:09;24.95;;;3.58;;
20511;SDS011;10414;52.074;5.126;2024-01-25T00:49:36;21.35;;;3.10;;
20511;SDS011;10414;52.074;5.126;2024-01-25T00:52:04;18.90;;;3.30;;
20511;SDS011;10414;52.074;5.126;2024-01-25T00:54:31;23.40;;;3.95;;
20511;SDS011;10414;52.074;5.126;2024-01-25T00:56:58;31.45;;;4.28;;
20511;SDS011;10414;52.074;5.126;2024-01-25T00:59:26;27.83;;;3.30;;
20511;SDS011;10414;52.074;5.126;2024-01-25T01:01:55;23.95;;;3.20;;
20511;SDS011;10414;52.074;5.126;2024-01-25T01:04:24;19.20;;;3.10;;
20511;SDS011;10414;52.074;5.126;2024-01-25T01:06:51;24.27;;;3.17;;
20511;SDS011;10414;52.074;5.126;2024-01-25T01:09:19;21.77;;;3.33;;
20511;SDS011;10414;52.074;5.126;2024-01-25T01:11:46;24.45;;;2.88;;
20511;SDS011;10414;52.074;5.126;2024-01-25T01:14:13;26.75;;;3.88;;
20511;SDS011;10414;52.074;5.126;2024-01-25T01:16:40;28.55;;;3.95;;
20511;SDS011;10414;52.074;5.126;2024-01-25T01:19:08;23.60;;;3.40;;
20511;SDS011;10414;52.074;5.126;2024-01-25T01:21:35;22.65;;;3.30;;
20511;SDS011;10414;52.074;5.126;2024-01-25T01:24:02;26.05;;;3.33;;
20511;SDS011;10414;52.074;5.126;2024-01-25T01:26:28;28.80;;;3.70;;
20511;SDS011;10414;52.074;5.126;2024-01-25T01:28:55;28.50;;;3.42;;
20511;SDS011;10414;52.074;5.126;2024-01-25T01:31:22;21.58;;;2.97;;
20511;SDS011;10414;52.074;5.126;2024-01-25T01:33:49;21.45;;;3.17;;
20511;SDS011;10414;52.074;5.126;2024-01-25T01:36:17;23.48;;;3.20;;
20511;SDS011;10414;52.074;5.126;2024-01-25T01:38:44;24.70;;;3.63;;
20511;SDS011;10414;52.074;5.126;2024-01-25T01:41:11;20.45;;;3.47;;
20511;SDS011;10414;52.074;5.126;2024-01-25T01:43:38;43.22;;;4.10;;
20511;SDS011;10414;52.074;5.126;2024-01-25T01:46:07;30.45;;;3.55;;
20511;SDS011;10414;52.074;5.126;2024-01-25T01:48:37;25.83;;;3.33;;
20511;SDS011;10414;52.074;5.126;2024-01-25T01:51:04;24.33;;;3.67;;
20511;SDS011;10414;52.074;5.126;2024-01-25T01:53:33;21.63;;;4.22;;
20511;SDS011;10414;52.074;5.126;2024-01-25T01:56:01;14.38;;;3.25;;
20511;SDS011;10414;52.074;5.126;2024-01-25T01:58:28;19.05;;;3.17;;
20511;SDS011;10414;52.074;5.126;2024-01-25T02:00:56;27.55;;;3.53;;
20511;SDS011;10414;52.074;5.126;2024-01-25T02:03:25;26.45;;;4.45;;
20511;SDS011;10414;52.074;5.126;2024-01-25T02:05:51;24.40;;;3.40;;
20511;SDS011;10414;52.074;5.126;2024-01-25T02:08:19;31.45;;;4.75;;
20511;SDS011;10414;52.074;5.126;2024-01-25T02:10:47;27.45;;;3.80;;
20511;SDS011;10414;52.074;5.126;2024-01-25T02:13:14;23.88;;;3.88;;
20511;SDS011;10414;52.074;5.126;2024-01-25T02:15:41;25.02;;;3.60;;
20511;SDS011;10414;52.074;5.126;2024-01-25T02:18:07;21.02;;;3.33;;
20511;SDS011;10414;52.074;5.126;2024-01-25T02:20:35;29.23;;;3.80;;
20511;SDS011;10414;52.074;5.126;2024-01-25T02:23:03;26.88;;;4.00;;
20511;SDS011;10414;52.074;5.126;2024-01-25T02:25:30;23.15;;;3.08;;
20511;SDS011;10414;52.074;5.126;2024-01-25T02:27:57;18.55;;;2.83;;
20511;SDS011;10414;52.074;5.126;2024-01-25T02:30:24;26.95;;;3.03;;
20511;SDS011;10414;52.074;5.126;2024-01-25T02:32:51;17.98;;;2.97;;
20511;SDS011;10414;52.074;5.126;2024-01-25T02:35:17;29.48;;;4.05;;
20511;SDS011;10414;52.074;5.126;2024-01-25T02:37:44;23.30;;;3.58;;
20511;SDS011;10414;52.074;5.126;2024-01-25T02:40:13;25.35;;;3.45;;
20511;SDS011;10414;52.074;5.126;2024-01-25T02:42:40;31.10;;;3.13;;
20511;SDS011;10414;52.074;5.126;2024-01-25T02:45:07;22.45;;;3.05;;
20511;SDS011;10414;52.074;5.126;2024-01-25T02:47:34;21.98;;;3.17;;
20511;SDS011;10414;52.074;5.126;2024-01-25T02:50:01;24.73;;;3.33;;
20511;SDS011;10414;52.074;5.126;2024-01-25T02:52:28;22.65;;;2.97;;
20511;SDS011;10414;52.074;5.126;2024-01-25T02:54:55;17.63;;;2.63;;
20511;SDS011;10414;52.074;5.126;2024-01-25T02:57:25;31.90;;;3.42;;
20511;SDS011;10414;52.074;5.126;2024-01-25T02:59:52;25.17;;;3.60;;
20511;SDS011;10414;52.074;5.126;2024-01-25T03:02:18;21.77;;;3.25;;
20511;SDS011;10414;52.074;5.126;2024-01-25T03:04:45;24.95;;;3.45;;
20511;SDS011;10414;52.074;5.126;2024-01-25T03:07:13;16.90;;;3.05;;
20511;SDS011;10414;52.074;5.126;2024-01-25T03:09:40;27.88;;;3.50;;
20511;SDS011;10414;52.074;5.126;2024-01-25T03:12:07;23.15;;;3.10;;
20511;SDS011;10414;52.074;5.126;2024-01-25T03:14:35;33.75;;;4.13;;
20511;SDS011;10414;52.074;5.126;2024-01-25T03:17:02;17.40;;;2.72;;
20511;SDS011;10414;52.074;5.126;2024-01-25T03:19:29;20.80;;;3.58;;
20511;SDS011;10414;52.074;5.126;2024-01-25T03:21:56;17.83;;;3.10;;
20511;SDS011;10414;52.074;5.126;2024-01-25T03:24:23;18.73;;;2.92;;
20511;SDS011;10414;52.074;5.126;2024-01-25T03:26:50;24.50;;;4.78;;
20511;SDS011;10414;52.074;5.126;2024-01-25T03:29:17;24.40;;;3.53;;
20511;SDS011;10414;52.074;5.126;2024-01-25T03:31:45;28.65;;;3.00;;
20511;SDS011;10414;52.074;5.126;2024-01-25T03:34:12;25.63;;;3.38;;
20511;SDS011;10414;52.074;5.126;2024-01-25T03:36:39;25.13;;;2.92;;
20511;SDS011;10414;52.074;5.126;2024-01-25T03:39:06;21.98;;;3.13;;
20511;SDS011;10414;52.074;5.126;2024-01-25T03:41:33;23.52;;;3.47;;
20511;SDS011;10414;52.074;5.126;2024-01-25T03:44:00;26.70;;;3.63;;
20511;SDS011;10414;52.074;5.126;2024-01-25T03:46:27;22.85;;;3.72;;
20511;SDS011;10414;52.074;5.126;2024-01-25T03:48:55;26.98;;;4.00;;
20511;SDS011;10414;52.074;5.126;2024-01-25T03:51:22;15.73;;;3.17;;
20511;SDS011;10414;52.074;5.126;2024-01-25T03:53:49;19.05;;;4.03;;
20511;SDS011;10414;52.074;5.126;2024-01-25T03:56:18;24.98;;;3.10;;
20511;SDS011;10414;52.074;5.126;2024-01-25T03:58:44;25.10;;;3.38;;
20511;SDS011;10414;52.074;5.126;2024-01-25T04:01:11;22.67;;;3.70;;
20511;SDS011;10414;52.074;5.126;2024-01-25T04:03:38;26.63;;;3.65;;
20511;SDS011;10414;52.074;5.126;2024-01-25T04:06:07;23.80;;;3.70;;
20511;SDS011;10414;52.074;5.126;2024-01-25T04:08:34;28.25;;;3.75;;
20511;SDS011;10414;52.074;5.126;2024-01-25T04:11:01;21.80;;;4.07;;
20511;SDS011;10414;52.074;5.126;2024-01-25T04:13:28;23.42;;;4.00;;
20511;SDS011;10414;52.074;5.126;2024-01-25T04:15:55;24.10;;;2.63;;
20511;SDS011;10414;52.074;5.126;2024-01-25T04:18:22;20.30;;;3.28;;
20511;SDS011;10414;52.074;5.126;2024-01-25T04:20:48;26.20;;;3.13;;
20511;SDS011;10414;52.074;5.126;2024-01-25T04:23:17;25.20;;;3.92;;
20511;SDS011;10414;52.074;5.126;2024-01-25T04:25:44;23.52;;;3.03;;
20511;SDS011;10414;52.074;5.126;2024-01-25T04:28:10;24.38;;;3.70;;
20511;SDS011;10414;52.074;5.126;2024-01-25T04:30:37;29.88;;;3.90;;
20511;SDS011;10414;52.074;5.126;2024-01-25T04:33:04;24.10;;;3.00;;
20511;SDS011;10414;52.074;5.126;2024-01-25T04:35:31;25.42;;;3.38;;
20511;SDS011;10414;52.074;5.126;2024-01-25T04:37:59;27.98;;;3.00;;
20511;SDS011;10414;52.074;5.126;2024-01-25T04:40:27;29.92;;;3.35;;
20511;SDS011;10414;52.074;5.126;2024-01-25T04:42:54;27.85;;;3.58;;
20511;SDS011;10414;52.074;5.126;2024-01-25T04:45:21;30.23;;;3.80;;
20511;SDS011;10414;52.074;5.126;2024-01-25T04:47:48;26.25;;;3.35;;
20511;SDS011;10414;52.074;5.126;2024-01-25T04:50:15;28.60;;;3.72;;
20511;SDS011;10414;52.074;5.126;2024-01-25T04:52:42;18.17;;;3.58;;
20511;SDS011;10414;52.074;5.126;2024-01-25T04:55:08;21.52;;;3.78;;
20511;SDS011;10414;52.074;5.126;2024-01-25T04:57:37;26.33;;;3.55;;
20511;SDS011;10414;52.074;5.126;2024-01-25T05:00:04;25.38;;;3.08;;
20511;SDS011;10414;52.074;5.126;2024-01-25T05:02:32;26.75;;;4.18;;
20511;SDS011;10414;52.074;5.126;2024-01-25T05:04:59;27.63;;;3.65;;
20511;SDS011;10414;52.074;5.126;2024-01-25T05:07:26;24.30;;;3.40;;
20511;SDS011;10414;52.074;5.126;2024-01-25T05:09:52;26.55;;;3.38;;
20511;SDS011;10414;52.074;5.126;2024-01-25T05:12:19;21.00;;;3.40;;
20511;SDS011;10414;52.074;5.126;2024-01-25T05:14:47;23.27;;;3.55;;
20511;SDS011;10414;52.074;5.126;2024-01-25T05:17:14;25.77;;;3.72;;
20511;SDS011;10414;52.074;5.126;2024-01-25T05:19:41;30.33;;;3.90;;
20511;SDS011;10414;52.074;5.126;2024-01-25T05:22:08;18.90;;;3.60;;
20511;SDS011;10414;52.074;5.126;2024-01-25T05:24:35;20.17;;;2.95;;
20511;SDS011;10414;52.074;5.126;2024-01-25T05:27:02;19.17;;;3.92;;
20511;SDS011;10414;52.074;5.126;2024-01-25T05:29:29;24.75;;;3.58;;
20511;SDS011;10414;52.074;5.126;2024-01-25T05:31:57;24.60;;;4.28;;
20511;SDS011;10414;52.074;5.126;2024-01-25T05:34:24;29.20;;;3.92;;
20511;SDS011;10414;52.074;5.126;2024-01-25T05:36:50;26.98;;;4.13;;
20511;SDS011;10414;52.074;5.126;2024-01-25T05:39:18;29.75;;;4.03;;
20511;SDS011;10414;52.074;5.126;2024-01-25T05:41:45;22.20;;;3.45;;
20511;SDS011;10414;52.074;5.126;2024-01-25T05:44:12;22.52;;;3.30;;
20511;SDS011;10414;52.074;5.126;2024-01-25T05:46:39;21.52;;;3.60;;
20511;SDS011;10414;52.074;5.126;2024-01-25T05:49:07;23.40;;;3.67;;
20511;SDS011;10414;52.074;5.126;2024-01-25T05:51:34;33.75;;;4.10;;
20511;SDS011;10414;52.074;5.126;2024-01-25T05:54:03;35.45;;;6.30;;
20511;SDS011;10414;52.074;5.126;2024-01-25T05:56:30;33.67;;;6.68;;
20511;SDS011;10414;52.074;5.126;2024-01-25T05:58:56;35.55;;;9.05;;
20511;SDS011;10414;52.074;5.126;2024-01-25T06:01:23;37.88;;;9.40;;
20511;SDS011;10414;52.074;5.126;2024-01-25T06:03:51;37.60;;;10.20;;
20511;SDS011;10414;52.074;5.126;2024-01-25T06:06:19;34.55;;;9.65;;
20511;SDS011;10414;52.074;5.126;2024-01-25T06:08:45;38.83;;;10.18;;
20511;SDS011;10414;52.074;5.126;2024-01-25T06:11:12;29.55;;;8.73;;
20511;SDS011;10414;52.074;5.126;2024-01-25T06:13:40;47.75;;;8.38;;
20511;SDS011;10414;52.074;5.126;2024-01-25T06:16:07;34.17;;;8.80;;
20511;SDS011;10414;52.074;5.126;2024-01-25T06:18:34;35.10;;;7.50;;
20511;SDS011;10414;52.074;5.126;2024-01-25T06:21:01;42.47;;;8.07;;
20511;SDS011;10414;52.074;5.126;2024-01-25T06:23:29;36.67;;;6.90;;
20511;SDS011;10414;52.074;5.126;2024-01-25T06:25:56;35.67;;;6.68;;
20511;SDS011;10414;52.074;5.126;2024-01-25T06:28:23;35.65;;;6.93;;
20511;SDS011;10414;52.074;5.126;2024-01-25T06:30:50;29.17;;;5.97;;
20511;SDS011;10414;52.074;5.126;2024-01-25T06:33:17;32.33;;;6.82;;
20511;SDS011;10414;52.074;5.126;2024-01-25T06:35:44;30.13;;;5.82;;
20511;SDS011;10414;52.074;5.126;2024-01-25T06:38:11;32.13;;;5.70;;
20511;SDS011;10414;52.074;5.126;2024-01-25T06:40:40;34.33;;;5.82;;
20511;SDS011;10414;52.074;5.126;2024-01-25T06:43:07;33.47;;;5.97;;
20511;SDS011;10414;52.074;5.126;2024-01-25T06:45:33;30.10;;;5.05;;
20511;SDS011;10414;52.074;5.126;2024-01-25T06:48:00;22.90;;;4.75;;
20511;SDS011;10414;52.074;5.126;2024-01-25T06:50:27;22.35;;;4.65;;
20511;SDS011;10414;52.074;5.126;2024-01-25T06:52:54;31.83;;;5.47;;
20511;SDS011;10414;52.074;5.126;2024-01-25T06:55:21;32.53;;;4.78;;
20511;SDS011;10414;52.074;5.126;2024-01-25T06:57:49;31.95;;;5.63;;
20511;SDS011;10414;52.074;5.126;2024-01-25T07:00:16;33.47;;;4.95;;
20511;SDS011;10414;52.074;5.126;2024-01-25T07:02:46;23.38;;;5.25;;
20511;SDS011;10414;52.074;5.126;2024-01-25T07:05:13;29.25;;;4.30;;
20511;SDS011;10414;52.074;5.126;2024-01-25T07:07:40;32.67;;;5.03;;
20511;SDS011;10414;52.074;5.126;2024-01-25T07:10:07;27.65;;;4.63;;
20511;SDS011;10414;52.074;5.126;2024-01-25T07:12:34;21.10;;;4.78;;
20511;SDS011;10414;52.074;5.126;2024-01-25T07:15:03;27.45;;;4.43;;
20511;SDS011;10414;52.074;5.126;2024-01-25T07:17:30;19.98;;;3.95;;
20511;SDS011;10414;52.074;5.126;2024-01-25T07:19:57;26.10;;;4.35;;
20511;SDS011;10414;52.074;5.126;2024-01-25T07:22:24;31.30;;;5.80;;
20511;SDS011;10414;52.074;5.126;2024-01-25T07:24:51;33.20;;;4.93;;
20511;SDS011;10414;52.074;5.126;2024-01-25T07:27:17;25.88;;;4.45;;
20511;SDS011;10414;52.074;5.126;2024-01-25T07:29:44;25.90;;;4.63;;
20511;SDS011;10414;52.074;5.126;2024-01-25T07:32:12;28.20;;;4.53;;
20511;SDS011;10414;52.074;5.126;2024-01-25T07:34:39;26.65;;;4.50;;
20511;SDS011;10414;52.074;5.126;2024-01-25T07:37:06;26.70;;;3.97;;
20511;SDS011;10414;52.074;5.126;2024-01-25T07:39:33;31.92;;;5.30;;
20511;SDS011;10414;52.074;5.126;2024-01-25T07:42:00;20.17;;;3.90;;
20511;SDS011;10414;52.074;5.126;2024-01-25T07:44:26;26.80;;;4.20;;
20511;SDS011;10414;52.074;5.126;2024-01-25T07:46:53;29.17;;;5.03;;
20511;SDS011;10414;52.074;5.126;2024-01-25T07:49:22;29.45;;;4.45;;
20511;SDS011;10414;52.074;5.126;2024-01-25T07:51:48;26.77;;;4.35;;
20511;SDS011;10414;52.074;5.126;2024-01-25T07:54:15;31.33;;;5.45;;
20511;SDS011;10414;52.074;5.126;2024-01-25T07:56:42;26.88;;;4.03;;
20511;SDS011;10414;52.074;5.126;2024-01-25T07:59:09;25.95;;;4.05;;
20511;SDS011;10414;52.074;5.126;2024-01-25T08:01:36;24.65;;;4.93;;
20511;SDS011;10414;52.074;5.126;2024-01-25T08:04:02;27.98;;;4.38;;
20511;SDS011;10414;52.074;5.126;2024-01-25T08:06:31;27.63;;;4.90;;
20511;SDS011;10414;52.074;5.126;2024-01-25T08:08:58;21.02;;;3.95;;
20511;SDS011;10414;52.074;5.126;2024-01-25T08:11:25;32.10;;;6.00;;
20511;SDS011;10414;52.074;5.126;2024-01-25T08:13:52;27.05;;;4.40;;
20511;SDS011;10414;52.074;5.126;2024-01-25T08:16:19;24.30;;;4.53;;
20511;SDS011;10414;52.074;5.126;2024-01-25T08:18:46;31.67;;;4.88;;
20511;SDS011;10414;52.074;5.126;2024-01-25T08:21:12;27.17;;;4.32;;
20511;SDS011;10414;52.074;5.126;2024-01-25T08:23:41;20.08;;;3.97;;
20511;SDS011;10414;52.074;5.126;2024-01-25T08:26:08;27.25;;;4.38;;
20511;SDS011;10414;52.074;5.126;2024-01-25T08:28:38;23.17;;;4.22;;
20511;SDS011;10414;52.074;5.126;2024-01-25T08:31:06;30.33;;;5.22;;
20511;SDS011;10414;52.074;5.126;2024-01-25T08:33:33;32.67;;;4.00;;
20511;SDS011;10414;52.074;5.126;2024-01-25T08:35:59;32.33;;;5.07;;
20511;SDS011;10414;52.074;5.126;2024-01-25T08:38:27;20.73;;;4.82;;
20511;SDS011;10414;52.074;5.126;2024-01-25T08:40:55;29.80;;;3.95;;
20511;SDS011;10414;52.074;5.126;2024-01-25T08:43:22;26.48;;;4.43;;
20511;SDS011;10414;52.074;5.126;2024-01-25T08:45:49;30.20;;;4.50;;
20511;SDS011;10414;52.074;5.126;2024-01-25T08:48:15;32.28;;;4.10;;
20511;SDS011;10414;52.074;5.126;2024-01-25T08:50:42;18.08;;;4.60;;
20511;SDS011;10414;52.074;5.126;2024-01-25T08:53:09;21.15;;;4.68;;
20511;SDS011;10414;52.074;5.126;2024-01-25T08:55:36;27.25;;;4.25;;
20511;SDS011;10414;52.074;5.126;2024-01-25T08:58:05;25.55;;;5.20;;
20511;SDS011;10414;52.074;5.126;2024-01-25T09:00:32;22.80;;;4.78;;
20511;SDS011;10414;52.074;5.126;2024-01-25T09:02:59;23.23;;;4.32;;
20511;SDS011;10414;52.074;5.126;2024-01-25T09:05:25;21.52;;;4.15;;
20511;SDS011;10414;52.074;5.126;2024-01-25T09:07:53;21.73;;;5.28;;
20511;SDS011;10414;52.074;5.126;2024-01-25T09:10:20;20.20;;;4.70;;
20511;SDS011;10414;52.074;5.126;2024-01-25T09:12:47;24.65;;;5.40;;
20511;SDS011;10414;52.074;5.126;2024-01-25T09:15:15;22.65;;;5.72;;
20511;SDS011;10414;52.074;5.126;2024-01-25T09:17:42;22.95;;;5.20;;
20511;SDS011;10414;52.074;5.126;2024-01-25T09:20:10;22.55;;;4.30;;
20511;SDS011;10414;52.074;5.126;2024-01-25T09:22:37;27.05;;;5.43;;
20511;SDS011;10414;52.074;5.126;2024-01-25T09:25:04;25.52;;;3.90;;
20511;SDS011;10414;52.074;5.126;2024-01-25T09:27:31;25.42;;;4.97;;
20511;SDS011;10414;52.074;5.126;2024-01-25T09:29:58;24.40;;;4.60;;
20511;SDS011;10414;52.074;5.126;2024-01-25T09:32:26;23.35;;;4.90;;
20511;SDS011;10414;52.074;5.126;2024-01-25T09:34:53;28.58;;;5.63;;
20511;SDS011;10414;52.074;5.126;2024-01-25T09:37:20;23.73;;;5.57;;
20511;SDS011;10414;52.074;5.126;2024-01-25T09:39:48;28.85;;;5.32;;
20511;SDS011;10414;52.074;5.126;2024-01-25T09:42:16;29.67;;;5.20;;
20511;SDS011;10414;52.074;5.126;2024-01-25T09:44:43;23.35;;;5.32;;
20511;SDS011;10414;52.074;5.126;2024-01-25T09:47:10;31.60;;;5.78;;
20511;SDS011;10414;52.074;5.126;2024-01-25T09:49:39;20.05;;;4.55;;
20511;SDS011;10414;52.074;5.126;2024-01-25T09:52:07;25.13;;;5.50;;
20511;SDS011;10414;52.074;5.126;2024-01-25T09:54:38;15.70;;;4.85;;
20511;SDS011;10414;52.074;5.126;2024-01-25T09:57:06;28.08;;;5.35;;
20511;SDS011;10414;52.074;5.126;2024-01-25T09:59:42;21.25;;;4.30;;
20511;SDS011;10414;52.074;5.126;2024-01-25T10:02:09;24.70;;;3.85;;
20511;SDS011;10414;52.074;5.126;2024-01-25T10:04:38;25.17;;;4.57;;
20511;SDS011;10414;52.074;5.126;2024-01-25T10:07:05;24.10;;;4.45;;
20511;SDS011;10414;52.074;5.126;2024-01-25T10:09:37;18.80;;;4.10;;
20511;SDS011;10414;52.074;5.126;2024-01-25T10:12:05;25.83;;;4.60;;
20511;SDS011;10414;52.074;5.126;2024-01-25T10:14:32;25.38;;;5.35;;
20511;SDS011;10414;52.074;5.126;2024-01-25T10:17:00;18.08;;;4.32;;
20511;SDS011;10414;52.074;5.126;2024-01-25T10:19:27;23.52;;;4.13;;
20511;SDS011;10414;52.074;5.126;2024-01-25T10:21:56;25.27;;;4.20;;
20511;SDS011;10414;52.074;5.126;2024-01-25T10:24:23;18.08;;;4.57;;
20511;SDS011;10414;52.074;5.126;2024-01-25T10:26:50;19.63;;;4.40;;
20511;SDS011;10414;52.074;5.126;2024-01-25T10:29:17;32.33;;;4.47;;
20511;SDS011;10414;52.074;5.126;2024-01-25T10:31:44;25.63;;;4.82;;
20511;SDS011;10414;52.074;5.126;2024-01-25T10:34:13;21.48;;;4.45;;
20511;SDS011;10414;52.074;5.126;2024-01-25T10:36:41;26.83;;;4.78;;
20511;SDS011;10414;52.074;5.126;2024-01-25T10:39:10;16.52;;;5.18;;
20511;SDS011;10414;52.074;5.126;2024-01-25T10:41:39;30.20;;;4.55;;
20511;SDS011;10414;52.074;5.126;2024-01-25T10:44:07;21.50;;;4.70;;
20511;SDS011;10414;52.074;5.126;2024-01-25T10:46:34;18.52;;;4.05;;
20511;SDS011;10414;52.074;5.126;2024-01-25T10:49:02;28.55;;;5.13;;
20511;SDS011;10414;52.074;5.126;2024-01-25T10:51:29;25.25;;;4.28;;
20511;SDS011;10414;52.074;5.126;2024-01-25T10:53:57;22.55;;;4.82;;
20511;SDS011;10414;52.074;5.126;2024-01-25T10:56:25;23.48;;;4.60;;
20511;SDS011;10414;52.074;5.126;2024-01-25T10:58:52;21.02;;;5.25;;
20511;SDS011;10414;52.074;5.126;2024-01-25T11:01:19;24.60;;;5.72;;
20511;SDS011;10414;52.074;5.126;2024-01-25T11:03:46;17.90;;;4.03;;
20511;SDS011;10414;52.074;5.126;2024-01-25T11:06:13;29.92;;;5.35;;
20511;SDS011;10414;52.074;5.126;2024-01-25T11:08:40;24.30;;;4.45;;
20511;SDS011;10414;52.074;5.126;2024-01-25T11:11:08;27.55;;;4.40;;
20511;SDS011;10414;52.074;5.126;2024-01-25T11:13:39;28.20;;;5.05;;
20511;SDS011;10414;52.074;5.126;2024-01-25T11:16:13;23.52;;;5.32;;
20511;SDS011;10414;52.074;5.126;2024-01-25T11:18:50;21.90;;;4.18;;
20511;SDS011;10414;52.074;5.126;2024-01-25T11:21:27;21.98;;;4.60;;
20511;SDS011;10414;52.074;5.126;2024-01-25T11:24:01;20.58;;;4.80;;
20511;SDS011;10414;52.074;5.126;2024-01-25T11:26:28;18.38;;;3.92;;
20511;SDS011;10414;52.074;5.126;2024-01-25T11:28:56;25.42;;;4.82;;
20511;SDS011;10414;52.074;5.126;2024-01-25T11:31:25;27.15;;;4.82;;
20511;SDS011;10414;52.074;5.126;2024-01-25T11:33:53;23.20;;;5.53;;
20511;SDS011;10414;52.074;5.126;2024-01-25T11:36:23;21.92;;;4.80;;
20511;SDS011;10414;52.074;5.126;2024-01-25T11:38:51;22.45;;;5.43;;
20511;SDS011;10414;52.074;5.126;2024-01-25T11:41:18;22.85;;;5.07;;
20511;SDS011;10414;52.074;5.126;2024-01-25T11:43:45;28.85;;;5.80;;
20511;SDS011;10414;52.074;5.126;2024-01-25T11:46:15;28.35;;;5.40;;
20511;SDS011;10414;52.074;5.126;2024-01-25T11:48:43;25.58;;;5.07;;
20511;SDS011;10414;52.074;5.126;2024-01-25T11:51:10;23.98;;;5.50;;
20511;SDS011;10414;52.074;5.126;2024-01-25T11:53:37;24.35;;;5.72;;
20511;SDS011;10414;52.074;5.126;2024-01-25T11:56:04;23.05;;;4.97;;
20511;SDS011;10414;52.074;5.126;2024-01-25T11:58:33;22.97;;;6.23;;
20511;SDS011;10414;52.074;5.126;2024-01-25T12:01:01;27.63;;;5.50;;
20511;SDS011;10414;52.074;5.126;2024-01-25T12:03:32;24.98;;;5.80;;
20511;SDS011;10414;52.074;5.126;2024-01-25T12:05:59;31.42;;;6.10;;
20511;SDS011;10414;52.074;5.126;2024-01-25T12:08:26;28.55;;;6.20;;
20511;SDS011;10414;52.074;5.126;2024-01-25T12:11:02;31.02;;;6.47;;
20511;SDS011;10414;52.074;5.126;2024-01-25T12:13:31;28.45;;;6.13;;
20511;SDS011;10414;52.074;5.126;2024-01-25T12:15:59;31.08;;;7.05;;
20511;SDS011;10414;52.074;5.126;2024-01-25T12:18:27;26.27;;;5.35;;
20511;SDS011;10414;52.074;5.126;2024-01-25T12:20:57;28.00;;;6.15;;
20511;SDS011;10414;52.074;5.126;2024-01-25T12:23:29;34.20;;;7.32;;
20511;SDS011;10414;52.074;5.126;2024-01-25T12:25:58;24.80;;;5.60;;
20511;SDS011;10414;52.074;5.126;2024-01-25T12:28:26;27.77;;;6.05;;
20511;SDS011;10414;52.074;5.126;2024-01-25T12:30:53;26.42;;;6.40;;
20511;SDS011;10414;52.074;5.126;2024-01-25T12:33:20;27.65;;;5.78;;
20511;SDS011;10414;52.074;5.126;2024-01-25T12:35:47;32.80;;;6.53;;
20511;SDS011;10414;52.074;5.126;2024-01-25T12:38:15;23.50;;;5.38;;
20511;SDS011;10414;52.074;5.126;2024-01-25T12:40:43;27.15;;;5.60;;
20511;SDS011;10414;52.074;5.126;2024-01-25T12:43:10;32.08;;;7.07;;
20511;SDS011;10414;52.074;5.126;2024-01-25T12:45:37;28.25;;;7.05;;
20511;SDS011;10414;52.074;5.126;2024-01-25T12:48:04;26.63;;;5.88;;
20511;SDS011;10414;52.074;5.126;2024-01-25T12:50:33;24.00;;;6.30;;
20511;SDS011;10414;52.074;5.126;2024-01-25T12:52:59;30.42;;;6.40;;
20511;SDS011;10414;52.074;5.126;2024-01-25T12:55:28;28.35;;;6.10;;
20511;SDS011;10414;52.074;5.126;2024-01-25T12:57:55;27.13;;;5.80;;
20511;SDS011;10414;52.074;5.126;2024-01-25T13:00:23;28.25;;;5.47;;
20511;SDS011;10414;52.074;5.126;2024-01-25T13:02:50;26.73;;;5.60;;
20511;SDS011;10414;52.074;5.126;2024-01-25T13:05:18;25.60;;;5.00;;
20511;SDS011;10414;52.074;5.126;2024-01-25T13:07:45;23.73;;;4.90;;
20511;SDS011;10414;52.074;5.126;2024-01-25T13:10:13;29.55;;;8.40;;
20511;SDS011;10414;52.074;5.126;2024-01-25T13:12:41;26.48;;;5.35;;
20511;SDS011;10414;52.074;5.126;2024-01-25T13:15:08;23.20;;;6.13;;
20511;SDS011;10414;52.074;5.126;2024-01-25T13:17:36;26.90;;;5.70;;
20511;SDS011;10414;52.074;5.126;2024-01-25T13:20:03;25.90;;;5.78;;
20511;SDS011;10414;52.074;5.126;2024-01-25T13:22:31;25.52;;;5.60;;
20511;SDS011;10414;52.074;5.126;2024-01-25T13:24:59;34.35;;;5.78;;
20511;SDS011;10414;52.074;5.126;2024-01-25T13:27:26;20.92;;;4.85;;
20511;SDS011;10414;52.074;5.126;2024-01-25T13:29:55;33.95;;;6.18;;
20511;SDS011;10414;52.074;5.126;2024-01-25T13:32:22;27.23;;;5.60;;
20511;SDS011;10414;52.074;5.126;2024-01-25T13:34:49;19.58;;;5.53;;
20511;SDS011;10414;52.074;5.126;2024-01-25T13:37:16;26.67;;;5.60;;
20511;SDS011;10414;52.074;5.126;2024-01-25T13:39:43;31.98;;;7.32;;
20511;SDS011;10414;52.074;5.126;2024-01-25T13:42:10;28.23;;;5.85;;
20511;SDS011;10414;52.074;5.126;2024-01-25T13:44:37;24.48;;;5.95;;
20511;SDS011;10414;52.074;5.126;2024-01-25T13:47:06;42.53;;;6.40;;
20511;SDS011;10414;52.074;5.126;2024-01-25T13:49:33;29.98;;;6.07;;
20511;SDS011;10414;52.074;5.126;2024-01-25T13:52:00;28.42;;;5.82;;
20511;SDS011;10414;52.074;5.126;2024-01-25T13:54:28;25.10;;;5.72;;
20511;SDS011;10414;52.074;5.126;2024-01-25T13:56:55;23.45;;;5.65;;
20511;SDS011;10414;52.074;5.126;2024-01-25T13:59:22;19.73;;;6.28;;
20511;SDS011;10414;52.074;5.126;2024-01-25T14:01:50;27.40;;;6.88;;
20511;SDS011;10414;52.074;5.126;2024-01-25T14:04:19;21.55;;;4.60;;
20511;SDS011;10414;52.074;5.126;2024-01-25T14:06:45;32.47;;;7.10;;
20511;SDS011;10414;52.074;5.126;2024-01-25T14:09:12;25.70;;;5.20;;
20511;SDS011;10414;52.074;5.126;2024-01-25T14:11:39;39.13;;;5.80;;
20511;SDS011;10414;52.074;5.126;2024-01-25T14:14:06;32.08;;;6.15;;
20511;SDS011;10414;52.074;5.126;2024-01-25T14:16:33;23.95;;;6.15;;
20511;SDS011;10414;52.074;5.126;2024-01-25T14:19:00;23.33;;;4.95;;
20511;SDS011;10414;52.074;5.126;2024-01-25T14:21:30;28.38;;;5.15;;
20511;SDS011;10414;52.074;5.126;2024-01-25T14:23:57;32.38;;;5.53;;
20511;SDS011;10414;52.074;5.126;2024-01-25T14:26:24;37.15;;;5.88;;
20511;SDS011;10414;52.074;5.126;2024-01-25T14:28:51;27.70;;;6.82;;
20511;SDS011;10414;52.074;5.126;2024-01-25T14:31:18;33.47;;;6.32;;
20511;SDS011;10414;52.074;5.126;2024-01-25T14:33:44;31.95;;;6.55;;